sensor_id;sensor_type;location;lat;lon;timestamp;temperature;humidity
37378;DHT22;23248;48.120;14.854;2022-09-09T00:07:07;12.50;99.90
37378;DHT22;23248;48.120;14.854;2022-09-09T00:09:46;12.50;99.90
37378;DHT22;23248;48.120;14.854;2022-09-09T00:12:18;12.40;99.90
37378;DHT22;23248;48.120;14.854;2022-09-09T00:14:54;12.30;99.90
37378;DHT22;23248;48.120;14.854;2022-09-09T00:19:49;12.20;99.90
37378;DHT22;23248;48.120;14.854;2022-09-09T00:24:46;12.20;99.90
37378;DHT22;23248;48.120;14.854;2022-09-09T00:29:41;12.30;99.90
37378;DHT22;23248;48.120;14.854;2022-09-09T00:32:12;12.30;99.90
37378;DHT22;23248;48.120;14.854;2022-09-09T00:34:41;12.20;99.90
37378;DHT22;23248;48.120;14.854;2022-09-09T00:37:08;12.30;99.90
37378;DHT22;23248;48.120;14.854;2022-09-09T00:39:46;12.20;99.90
37378;DHT22;23248;48.120;14.854;2022-09-09T00:42:21;12.20;99.90
37378;DHT22;23248;48.120;14.854;2022-09-09T00:44:53;12.20;99.90
37378;DHT22;23248;48.120;14.854;2022-09-09T00:49:59;12.30;99.90
37378;DHT22;23248;48.120;14.854;2022-09-09T00:54:55;12.40;99.90
37378;DHT22;23248;48.120;14.854;2022-09-09T01:00:27;12.40;99.90
37378;DHT22;23248;48.120;14.854;2022-09-09T01:05:33;12.30;99.90
37378;DHT22;23248;48.120;14.854;2022-09-09T01:08:01;12.30;99.90
37378;DHT22;23248;48.120;14.854;2022-09-09T01:10:45;12.20;99.90
37378;DHT22;23248;48.120;14.854;2022-09-09T01:13:23;12.20;99.90
37378;DHT22;23248;48.120;14.854;2022-09-09T01:15:49;12.20;99.90
37378;DHT22;23248;48.120;14.854;2022-09-09T01:18:20;12.30;99.90
37378;DHT22;23248;48.120;14.854;2022-09-09T01:23:30;12.30;99.90
37378;DHT22;23248;48.120;14.854;2022-09-09T01:26:04;12.20;99.90
37378;DHT22;23248;48.120;14.854;2022-09-09T01:28:33;12.20;99.90
37378;DHT22;23248;48.120;14.854;2022-09-09T01:31:00;12.20;99.90
37378;DHT22;23248;48.120;14.854;2022-09-09T01:33:27;12.00;99.90
37378;DHT22;23248;48.120;14.854;2022-09-09T01:35:59;12.00;99.90
37378;DHT22;23248;48.120;14.854;2022-09-09T01:38:27;11.90;99.90
37378;DHT22;23248;48.120;14.854;2022-09-09T01:40:53;11.90;99.90
37378;DHT22;23248;48.120;14.854;2022-09-09T01:43:19;11.90;99.90
37378;DHT22;23248;48.120;14.854;2022-09-09T01:45:45;11.90;99.90
37378;DHT22;23248;48.120;14.854;2022-09-09T01:48:12;11.90;99.90
37378;DHT22;23248;48.120;14.854;2022-09-09T01:50:38;11.90;99.90
37378;DHT22;23248;48.120;14.854;2022-09-09T01:53:04;11.80;99.90
37378;DHT22;23248;48.120;14.854;2022-09-09T01:55:39;11.90;99.90
37378;DHT22;23248;48.120;14.854;2022-09-09T02:00:49;11.80;99.90
37378;DHT22;23248;48.120;14.854;2022-09-09T02:03:21;11.80;99.90
37378;DHT22;23248;48.120;14.854;2022-09-09T02:08:40;11.60;99.90
37378;DHT22;23248;48.120;14.854;2022-09-09T02:11:15;11.60;99.90
37378;DHT22;23248;48.120;14.854;2022-09-09T02:13:43;11.50;99.90
37378;DHT22;23248;48.120;14.854;2022-09-09T02:16:23;11.50;99.90
37378;DHT22;23248;48.120;14.854;2022-09-09T02:18:52;11.50;99.90
37378;DHT22;23248;48.120;14.854;2022-09-09T02:21:18;11.50;99.90
37378;DHT22;23248;48.120;14.854;2022-09-09T02:23:45;11.60;99.90
37378;DHT22;23248;48.120;14.854;2022-09-09T02:26:12;11.70;99.90
37378;DHT22;23248;48.120;14.854;2022-09-09T02:28:44;11.70;99.90
37378;DHT22;23248;48.120;14.854;2022-09-09T02:31:10;11.70;99.90
37378;DHT22;23248;48.120;14.854;2022-09-09T02:33:43;11.80;99.90
37378;DHT22;23248;48.120;14.854;2022-09-09T02:36:10;11.80;99.90
37378;DHT22;23248;48.120;14.854;2022-09-09T02:38:41;11.80;99.90
37378;DHT22;23248;48.120;14.854;2022-09-09T02:41:11;11.80;99.90
37378;DHT22;23248;48.120;14.854;2022-09-09T02:43:36;11.80;99.90
37378;DHT22;23248;48.120;14.854;2022-09-09T02:51:28;11.60;99.90
37378;DHT22;23248;48.120;14.854;2022-09-09T02:54:04;11.50;99.90
37378;DHT22;23248;48.120;14.854;2022-09-09T02:56:34;11.40;99.90
37378;DHT22;23248;48.120;14.854;2022-09-09T02:59:03;11.40;99.90
37378;DHT22;23248;48.120;14.854;2022-09-09T03:01:29;11.40;99.90
37378;DHT22;23248;48.120;14.854;2022-09-09T03:03:55;11.40;99.90
37378;DHT22;23248;48.120;14.854;2022-09-09T03:06:20;11.40;99.90
37378;DHT22;23248;48.120;14.854;2022-09-09T03:08:47;11.50;99.90
37378;DHT22;23248;48.120;14.854;2022-09-09T03:11:15;11.40;99.90
37378;DHT22;23248;48.120;14.854;2022-09-09T03:13:41;11.50;99.90
37378;DHT22;23248;48.120;14.854;2022-09-09T03:16:06;11.50;99.90
37378;DHT22;23248;48.120;14.854;2022-09-09T03:18:32;11.50;99.90
37378;DHT22;23248;48.120;14.854;2022-09-09T03:20:57;11.60;99.90
37378;DHT22;23248;48.120;14.854;2022-09-09T03:23:24;11.60;99.90
37378;DHT22;23248;48.120;14.854;2022-09-09T03:25:50;11.70;99.90
37378;DHT22;23248;48.120;14.854;2022-09-09T03:28:17;11.60;99.90
37378;DHT22;23248;48.120;14.854;2022-09-09T03:30:43;11.60;99.90
37378;DHT22;23248;48.120;14.854;2022-09-09T03:33:08;11.50;99.90
37378;DHT22;23248;48.120;14.854;2022-09-09T03:35:34;11.40;99.90
37378;DHT22;23248;48.120;14.854;2022-09-09T03:38:00;11.40;99.90
37378;DHT22;23248;48.120;14.854;2022-09-09T03:40:26;11.40;99.90
37378;DHT22;23248;48.120;14.854;2022-09-09T03:42:51;11.40;99.90
37378;DHT22;23248;48.120;14.854;2022-09-09T03:45:17;11.30;99.90
37378;DHT22;23248;48.120;14.854;2022-09-09T03:47:42;11.20;99.90
37378;DHT22;23248;48.120;14.854;2022-09-09T03:50:08;11.20;99.90
37378;DHT22;23248;48.120;14.854;2022-09-09T03:52:36;11.10;99.90
37378;DHT22;23248;48.120;14.854;2022-09-09T03:55:02;11.10;99.90
37378;DHT22;23248;48.120;14.854;2022-09-09T03:57:28;11.10;99.90
37378;DHT22;23248;48.120;14.854;2022-09-09T03:59:55;11.10;99.90
37378;DHT22;23248;48.120;14.854;2022-09-09T04:02:20;11.10;99.90
37378;DHT22;23248;48.120;14.854;2022-09-09T04:04:46;11.10;99.90
37378;DHT22;23248;48.120;14.854;2022-09-09T04:07:12;11.00;99.90
37378;DHT22;23248;48.120;14.854;2022-09-09T04:09:38;10.90;99.90
37378;DHT22;23248;48.120;14.854;2022-09-09T04:12:03;11.00;99.90
37378;DHT22;23248;48.120;14.854;2022-09-09T04:14:29;10.90;99.90
37378;DHT22;23248;48.120;14.854;2022-09-09T04:16:55;10.90;99.90
37378;DHT22;23248;48.120;14.854;2022-09-09T04:19:23;11.00;99.90
37378;DHT22;23248;48.120;14.854;2022-09-09T04:21:49;10.90;99.90
37378;DHT22;23248;48.120;14.854;2022-09-09T04:24:17;10.80;99.90
37378;DHT22;23248;48.120;14.854;2022-09-09T04:26:42;10.80;99.90
37378;DHT22;23248;48.120;14.854;2022-09-09T04:29:08;10.80;99.90
37378;DHT22;23248;48.120;14.854;2022-09-09T04:31:34;10.80;99.90
37378;DHT22;23248;48.120;14.854;2022-09-09T04:33:59;10.80;99.90
37378;DHT22;23248;48.120;14.854;2022-09-09T04:36:30;10.80;99.90
37378;DHT22;23248;48.120;14.854;2022-09-09T04:38:57;10.70;99.90
37378;DHT22;23248;48.120;14.854;2022-09-09T04:41:22;10.70;99.90
37378;DHT22;23248;48.120;14.854;2022-09-09T04:43:49;10.80;99.90
37378;DHT22;23248;48.120;14.854;2022-09-09T04:46:14;10.70;99.90
37378;DHT22;23248;48.120;14.854;2022-09-09T04:48:42;10.70;99.90
37378;DHT22;23248;48.120;14.854;2022-09-09T04:51:08;10.60;99.90
37378;DHT22;23248;48.120;14.854;2022-09-09T04:53:36;10.70;99.90
37378;DHT22;23248;48.120;14.854;2022-09-09T04:56:07;10.70;99.90
37378;DHT22;23248;48.120;14.854;2022-09-09T04:58:35;10.80;99.90
37378;DHT22;23248;48.120;14.854;2022-09-09T05:01:08;10.80;99.90
37378;DHT22;23248;48.120;14.854;2022-09-09T05:03:34;10.80;99.90
37378;DHT22;23248;48.120;14.854;2022-09-09T05:06:03;10.80;99.90
37378;DHT22;23248;48.120;14.854;2022-09-09T05:08:29;10.90;99.90
37378;DHT22;23248;48.120;14.854;2022-09-09T05:10:55;11.10;99.90
37378;DHT22;23248;48.120;14.854;2022-09-09T05:13:20;11.10;99.90
37378;DHT22;23248;48.120;14.854;2022-09-09T05:15:51;11.30;99.90
37378;DHT22;23248;48.120;14.854;2022-09-09T05:18:17;11.40;99.90
37378;DHT22;23248;48.120;14.854;2022-09-09T05:20:42;11.50;99.90
37378;DHT22;23248;48.120;14.854;2022-09-09T05:23:08;11.60;99.90
37378;DHT22;23248;48.120;14.854;2022-09-09T05:25:35;11.70;99.90
37378;DHT22;23248;48.120;14.854;2022-09-09T05:28:01;11.80;99.90
37378;DHT22;23248;48.120;14.854;2022-09-09T05:30:26;12.00;99.90
37378;DHT22;23248;48.120;14.854;2022-09-09T05:32:55;12.00;99.90
37378;DHT22;23248;48.120;14.854;2022-09-09T05:35:21;12.10;99.90
37378;DHT22;23248;48.120;14.854;2022-09-09T05:37:47;12.10;99.90
37378;DHT22;23248;48.120;14.854;2022-09-09T05:40:13;12.20;99.90
37378;DHT22;23248;48.120;14.854;2022-09-09T05:42:39;12.20;99.90
37378;DHT22;23248;48.120;14.854;2022-09-09T05:45:05;12.30;99.90
37378;DHT22;23248;48.120;14.854;2022-09-09T05:47:33;12.30;99.90
37378;DHT22;23248;48.120;14.854;2022-09-09T05:49:59;12.40;99.90
37378;DHT22;23248;48.120;14.854;2022-09-09T05:52:24;12.40;99.90
37378;DHT22;23248;48.120;14.854;2022-09-09T05:54:51;12.40;99.90
37378;DHT22;23248;48.120;14.854;2022-09-09T05:57:17;12.50;99.90
37378;DHT22;23248;48.120;14.854;2022-09-09T05:59:44;12.60;99.90
37378;DHT22;23248;48.120;14.854;2022-09-09T06:02:11;12.70;99.90
37378;DHT22;23248;48.120;14.854;2022-09-09T06:04:37;12.80;99.90
37378;DHT22;23248;48.120;14.854;2022-09-09T06:07:04;13.10;99.90
37378;DHT22;23248;48.120;14.854;2022-09-09T06:09:29;13.30;99.90
37378;DHT22;23248;48.120;14.854;2022-09-09T06:11:55;13.50;99.90
37378;DHT22;23248;48.120;14.854;2022-09-09T06:14:22;13.70;99.90
37378;DHT22;23248;48.120;14.854;2022-09-09T06:16:48;13.80;99.90
37378;DHT22;23248;48.120;14.854;2022-09-09T06:19:14;13.90;99.90
37378;DHT22;23248;48.120;14.854;2022-09-09T06:21:39;13.90;99.90
37378;DHT22;23248;48.120;14.854;2022-09-09T06:24:06;14.00;99.90
37378;DHT22;23248;48.120;14.854;2022-09-09T06:26:33;14.10;99.90
37378;DHT22;23248;48.120;14.854;2022-09-09T06:28:59;14.20;99.90
37378;DHT22;23248;48.120;14.854;2022-09-09T06:31:26;14.20;99.90
37378;DHT22;23248;48.120;14.854;2022-09-09T06:33:53;14.20;99.90
37378;DHT22;23248;48.120;14.854;2022-09-09T06:36:21;14.30;99.90
37378;DHT22;23248;48.120;14.854;2022-09-09T06:38:47;14.30;99.90
37378;DHT22;23248;48.120;14.854;2022-09-09T06:41:14;14.40;99.90
37378;DHT22;23248;48.120;14.854;2022-09-09T06:43:40;14.50;99.90
37378;DHT22;23248;48.120;14.854;2022-09-09T06:46:10;14.50;99.90
37378;DHT22;23248;48.120;14.854;2022-09-09T06:48:36;14.60;99.90
37378;DHT22;23248;48.120;14.854;2022-09-09T06:51:12;14.60;99.90
37378;DHT22;23248;48.120;14.854;2022-09-09T06:53:38;14.80;99.90
37378;DHT22;23248;48.120;14.854;2022-09-09T06:58:39;15.00;99.90
37378;DHT22;23248;48.120;14.854;2022-09-09T07:01:08;15.20;99.90
37378;DHT22;23248;48.120;14.854;2022-09-09T07:03:33;15.30;99.90
37378;DHT22;23248;48.120;14.854;2022-09-09T07:06:00;15.30;99.90
37378;DHT22;23248;48.120;14.854;2022-09-09T07:08:26;15.30;99.90
37378;DHT22;23248;48.120;14.854;2022-09-09T07:10:52;15.30;99.90
37378;DHT22;23248;48.120;14.854;2022-09-09T07:13:24;15.30;99.90
37378;DHT22;23248;48.120;14.854;2022-09-09T07:15:51;15.40;99.90
37378;DHT22;23248;48.120;14.854;2022-09-09T07:18:16;15.40;99.90
37378;DHT22;23248;48.120;14.854;2022-09-09T07:20:42;15.40;99.90
37378;DHT22;23248;48.120;14.854;2022-09-09T07:23:08;15.30;99.90
37378;DHT22;23248;48.120;14.854;2022-09-09T07:25:33;15.20;99.90
37378;DHT22;23248;48.120;14.854;2022-09-09T07:27:59;15.10;99.90
37378;DHT22;23248;48.120;14.854;2022-09-09T07:30:24;15.10;99.90
37378;DHT22;23248;48.120;14.854;2022-09-09T07:32:53;15.10;99.90
37378;DHT22;23248;48.120;14.854;2022-09-09T07:35:19;15.20;99.90
37378;DHT22;23248;48.120;14.854;2022-09-09T07:37:45;15.20;99.90
37378;DHT22;23248;48.120;14.854;2022-09-09T07:40:11;15.20;99.90
37378;DHT22;23248;48.120;14.854;2022-09-09T07:42:36;15.20;99.90
37378;DHT22;23248;48.120;14.854;2022-09-09T07:45:03;15.20;99.90
37378;DHT22;23248;48.120;14.854;2022-09-09T07:47:29;15.20;99.90
37378;DHT22;23248;48.120;14.854;2022-09-09T07:49:54;15.20;99.90
37378;DHT22;23248;48.120;14.854;2022-09-09T07:52:21;15.20;99.90
37378;DHT22;23248;48.120;14.854;2022-09-09T07:54:46;15.20;99.90
37378;DHT22;23248;48.120;14.854;2022-09-09T07:57:12;15.30;99.90
37378;DHT22;23248;48.120;14.854;2022-09-09T07:59:38;15.30;99.90
37378;DHT22;23248;48.120;14.854;2022-09-09T08:02:04;15.40;99.90
37378;DHT22;23248;48.120;14.854;2022-09-09T08:04:29;15.50;99.90
37378;DHT22;23248;48.120;14.854;2022-09-09T08:06:56;15.60;99.90
37378;DHT22;23248;48.120;14.854;2022-09-09T08:09:22;15.70;99.90
37378;DHT22;23248;48.120;14.854;2022-09-09T08:11:52;15.60;99.90
37378;DHT22;23248;48.120;14.854;2022-09-09T08:14:17;15.60;99.90
37378;DHT22;23248;48.120;14.854;2022-09-09T08:16:44;15.70;99.90
37378;DHT22;23248;48.120;14.854;2022-09-09T08:19:10;15.70;99.90
37378;DHT22;23248;48.120;14.854;2022-09-09T08:21:37;15.80;99.90
37378;DHT22;23248;48.120;14.854;2022-09-09T08:24:04;15.90;99.90
37378;DHT22;23248;48.120;14.854;2022-09-09T08:26:33;15.90;99.90
37378;DHT22;23248;48.120;14.854;2022-09-09T08:29:00;16.00;99.90
37378;DHT22;23248;48.120;14.854;2022-09-09T08:31:30;16.10;99.90
37378;DHT22;23248;48.120;14.854;2022-09-09T08:33:57;16.20;99.90
37378;DHT22;23248;48.120;14.854;2022-09-09T08:36:28;16.20;99.90
37378;DHT22;23248;48.120;14.854;2022-09-09T08:38:56;16.30;99.90
37378;DHT22;23248;48.120;14.854;2022-09-09T08:57:43;16.70;99.90
37378;DHT22;23248;48.120;14.854;2022-09-09T09:00:11;16.80;99.90
37378;DHT22;23248;48.120;14.854;2022-09-09T09:02:42;16.80;99.90
37378;DHT22;23248;48.120;14.854;2022-09-09T09:05:16;16.80;99.90
37378;DHT22;23248;48.120;14.854;2022-09-09T09:07:59;16.90;99.90
37378;DHT22;23248;48.120;14.854;2022-09-09T09:16:06;17.10;99.90
37378;DHT22;23248;48.120;14.854;2022-09-09T09:18:35;17.20;99.90
37378;DHT22;23248;48.120;14.854;2022-09-09T09:21:14;17.20;99.90
37378;DHT22;23248;48.120;14.854;2022-09-09T09:23:56;17.20;99.90
37378;DHT22;23248;48.120;14.854;2022-09-09T09:26:23;17.20;99.90
37378;DHT22;23248;48.120;14.854;2022-09-09T09:28:52;17.10;99.90
37378;DHT22;23248;48.120;14.854;2022-09-09T09:31:21;17.10;99.90
37378;DHT22;23248;48.120;14.854;2022-09-09T09:33:51;17.00;99.90
37378;DHT22;23248;48.120;14.854;2022-09-09T09:36:18;17.00;99.90
37378;DHT22;23248;48.120;14.854;2022-09-09T09:38:55;17.00;99.90
37378;DHT22;23248;48.120;14.854;2022-09-09T09:41:31;17.00;99.90
37378;DHT22;23248;48.120;14.854;2022-09-09T09:43:56;16.90;99.90
37378;DHT22;23248;48.120;14.854;2022-09-09T09:46:23;16.80;99.90
37378;DHT22;23248;48.120;14.854;2022-09-09T09:48:58;16.70;99.90
37378;DHT22;23248;48.120;14.854;2022-09-09T09:51:24;16.80;99.90
37378;DHT22;23248;48.120;14.854;2022-09-09T09:53:50;16.70;99.90
37378;DHT22;23248;48.120;14.854;2022-09-09T09:56:18;16.80;99.90
37378;DHT22;23248;48.120;14.854;2022-09-09T09:58:51;16.90;99.90
37378;DHT22;23248;48.120;14.854;2022-09-09T10:01:26;16.90;99.90
37378;DHT22;23248;48.120;14.854;2022-09-09T10:03:54;17.10;99.90
37378;DHT22;23248;48.120;14.854;2022-09-09T10:06:33;17.20;99.90
37378;DHT22;23248;48.120;14.854;2022-09-09T10:08:58;17.20;99.90
37378;DHT22;23248;48.120;14.854;2022-09-09T10:11:35;17.20;99.90
37378;DHT22;23248;48.120;14.854;2022-09-09T10:14:19;17.30;99.90
37378;DHT22;23248;48.120;14.854;2022-09-09T10:19:30;17.20;99.90
37378;DHT22;23248;48.120;14.854;2022-09-09T10:24:33;17.20;99.90
37378;DHT22;23248;48.120;14.854;2022-09-09T10:27:04;17.20;99.90
37378;DHT22;23248;48.120;14.854;2022-09-09T10:39:48;17.00;99.90
37378;DHT22;23248;48.120;14.854;2022-09-09T10:42:18;17.00;99.90
37378;DHT22;23248;48.120;14.854;2022-09-09T10:52:19;16.90;99.90
37378;DHT22;23248;48.120;14.854;2022-09-09T10:55:02;16.90;99.90
37378;DHT22;23248;48.120;14.854;2022-09-09T10:57:53;16.90;99.90
37378;DHT22;23248;48.120;14.854;2022-09-09T11:00:30;17.00;99.90
37378;DHT22;23248;48.120;14.854;2022-09-09T11:03:01;17.00;99.90
37378;DHT22;23248;48.120;14.854;2022-09-09T11:05:32;17.10;99.90
37378;DHT22;23248;48.120;14.854;2022-09-09T11:08:03;17.00;99.90
37378;DHT22;23248;48.120;14.854;2022-09-09T11:13:10;17.10;99.90
37378;DHT22;23248;48.120;14.854;2022-09-09T11:15:39;17.00;99.90
37378;DHT22;23248;48.120;14.854;2022-09-09T11:18:06;17.10;99.90
37378;DHT22;23248;48.120;14.854;2022-09-09T11:20:34;17.20;99.90
37378;DHT22;23248;48.120;14.854;2022-09-09T11:23:11;17.20;99.90
37378;DHT22;23248;48.120;14.854;2022-09-09T11:25:40;17.20;99.90
37378;DHT22;23248;48.120;14.854;2022-09-09T11:41:06;17.50;99.90
37378;DHT22;23248;48.120;14.854;2022-09-09T11:43:39;17.60;99.90
37378;DHT22;23248;48.120;14.854;2022-09-09T11:46:06;17.70;99.90
37378;DHT22;23248;48.120;14.854;2022-09-09T11:51:01;17.80;99.90
37378;DHT22;23248;48.120;14.854;2022-09-09T11:53:30;17.80;99.90
37378;DHT22;23248;48.120;14.854;2022-09-09T11:56:00;17.80;99.90
37378;DHT22;23248;48.120;14.854;2022-09-09T11:58:26;17.80;99.90
37378;DHT22;23248;48.120;14.854;2022-09-09T12:00:57;17.80;99.90
37378;DHT22;23248;48.120;14.854;2022-09-09T12:06:29;17.80;99.90
37378;DHT22;23248;48.120;14.854;2022-09-09T12:08:55;17.90;99.90
37378;DHT22;23248;48.120;14.854;2022-09-09T12:11:23;17.90;99.90
37378;DHT22;23248;48.120;14.854;2022-09-09T12:13:53;17.90;99.90
37378;DHT22;23248;48.120;14.854;2022-09-09T12:16:33;17.90;99.90
37378;DHT22;23248;48.120;14.854;2022-09-09T12:19:06;17.90;99.90
37378;DHT22;23248;48.120;14.854;2022-09-09T12:24:10;17.80;99.90
37378;DHT22;23248;48.120;14.854;2022-09-09T12:31:46;17.90;99.90
37378;DHT22;23248;48.120;14.854;2022-09-09T12:36:52;17.90;99.90
37378;DHT22;23248;48.120;14.854;2022-09-09T12:39:24;18.00;99.90
37378;DHT22;23248;48.120;14.854;2022-09-09T12:41:53;18.00;99.90
37378;DHT22;23248;48.120;14.854;2022-09-09T12:44:23;18.00;99.90
37378;DHT22;23248;48.120;14.854;2022-09-09T12:46:49;18.10;99.90
37378;DHT22;23248;48.120;14.854;2022-09-09T12:49:34;18.10;99.90
37378;DHT22;23248;48.120;14.854;2022-09-09T12:52:02;18.10;99.90
37378;DHT22;23248;48.120;14.854;2022-09-09T12:54:30;18.10;99.90
37378;DHT22;23248;48.120;14.854;2022-09-09T12:56:55;18.10;99.90
37378;DHT22;23248;48.120;14.854;2022-09-09T12:59:26;18.10;99.90
37378;DHT22;23248;48.120;14.854;2022-09-09T13:01:55;18.10;99.90
37378;DHT22;23248;48.120;14.854;2022-09-09T13:04:21;18.10;99.90
37378;DHT22;23248;48.120;14.854;2022-09-09T13:06:48;18.00;99.90
37378;DHT22;23248;48.120;14.854;2022-09-09T13:09:14;17.90;99.90
37378;DHT22;23248;48.120;14.854;2022-09-09T13:11:49;17.90;99.90
37378;DHT22;23248;48.120;14.854;2022-09-09T13:14:26;17.90;99.90
37378;DHT22;23248;48.120;14.854;2022-09-09T13:16:56;17.90;99.90
37378;DHT22;23248;48.120;14.854;2022-09-09T13:19:22;17.90;99.90
37378;DHT22;23248;48.120;14.854;2022-09-09T13:21:51;17.90;99.90
37378;DHT22;23248;48.120;14.854;2022-09-09T13:24:33;17.80;99.90
37378;DHT22;23248;48.120;14.854;2022-09-09T13:27:04;17.70;99.90
37378;DHT22;23248;48.120;14.854;2022-09-09T13:29:31;17.70;99.90
37378;DHT22;23248;48.120;14.854;2022-09-09T13:32:03;17.60;99.90
37378;DHT22;23248;48.120;14.854;2022-09-09T13:34:31;17.60;99.90
37378;DHT22;23248;48.120;14.854;2022-09-09T13:36:59;17.60;99.90
37378;DHT22;23248;48.120;14.854;2022-09-09T13:39:27;17.60;99.90
37378;DHT22;23248;48.120;14.854;2022-09-09T13:41:53;17.50;99.90
37378;DHT22;23248;48.120;14.854;2022-09-09T13:44:28;17.50;99.90
37378;DHT22;23248;48.120;14.854;2022-09-09T13:46:59;17.50;99.90
37378;DHT22;23248;48.120;14.854;2022-09-09T13:49:26;17.60;99.90
37378;DHT22;23248;48.120;14.854;2022-09-09T13:52:02;17.70;99.90
37378;DHT22;23248;48.120;14.854;2022-09-09T13:54:28;17.60;99.90
37378;DHT22;23248;48.120;14.854;2022-09-09T13:56:56;17.70;99.90
37378;DHT22;23248;48.120;14.854;2022-09-09T13:59:21;17.70;99.90
37378;DHT22;23248;48.120;14.854;2022-09-09T14:01:47;17.60;99.90
37378;DHT22;23248;48.120;14.854;2022-09-09T14:04:12;17.60;99.90
37378;DHT22;23248;48.120;14.854;2022-09-09T14:06:38;17.60;99.90
37378;DHT22;23248;48.120;14.854;2022-09-09T14:09:05;17.50;99.90
37378;DHT22;23248;48.120;14.854;2022-09-09T14:11:30;17.40;99.90
37378;DHT22;23248;48.120;14.854;2022-09-09T14:13:56;17.50;99.90
37378;DHT22;23248;48.120;14.854;2022-09-09T14:16:22;17.40;99.90
37378;DHT22;23248;48.120;14.854;2022-09-09T14:18:47;17.30;99.90
37378;DHT22;23248;48.120;14.854;2022-09-09T14:21:13;17.30;99.90
37378;DHT22;23248;48.120;14.854;2022-09-09T14:23:40;17.30;99.90
37378;DHT22;23248;48.120;14.854;2022-09-09T14:26:05;17.40;99.90
37378;DHT22;23248;48.120;14.854;2022-09-09T14:28:31;17.40;99.90
37378;DHT22;23248;48.120;14.854;2022-09-09T14:31:00;17.30;99.90
37378;DHT22;23248;48.120;14.854;2022-09-09T14:33:26;17.30;99.90
37378;DHT22;23248;48.120;14.854;2022-09-09T14:35:58;17.40;99.90
37378;DHT22;23248;48.120;14.854;2022-09-09T14:38:24;17.40;99.90
37378;DHT22;23248;48.120;14.854;2022-09-09T14:40:50;17.50;99.90
37378;DHT22;23248;48.120;14.854;2022-09-09T14:43:15;17.40;99.90
37378;DHT22;23248;48.120;14.854;2022-09-09T14:45:41;17.40;99.90
37378;DHT22;23248;48.120;14.854;2022-09-09T14:48:08;17.40;99.90
37378;DHT22;23248;48.120;14.854;2022-09-09T14:50:33;17.50;99.90
37378;DHT22;23248;48.120;14.854;2022-09-09T14:53:02;17.50;99.90
37378;DHT22;23248;48.120;14.854;2022-09-09T14:55:27;17.50;99.90
37378;DHT22;23248;48.120;14.854;2022-09-09T14:57:54;17.50;99.90
37378;DHT22;23248;48.120;14.854;2022-09-09T15:00:20;17.60;99.90
37378;DHT22;23248;48.120;14.854;2022-09-09T15:02:46;17.60;99.90
37378;DHT22;23248;48.120;14.854;2022-09-09T15:05:11;17.60;99.90
37378;DHT22;23248;48.120;14.854;2022-09-09T15:07:37;17.60;99.90
37378;DHT22;23248;48.120;14.854;2022-09-09T15:10:03;17.60;99.90
37378;DHT22;23248;48.120;14.854;2022-09-09T15:12:29;17.50;99.90
37378;DHT22;23248;48.120;14.854;2022-09-09T15:14:55;17.50;99.90
37378;DHT22;23248;48.120;14.854;2022-09-09T15:17:21;17.40;99.90
37378;DHT22;23248;48.120;14.854;2022-09-09T15:19:47;17.30;99.90
37378;DHT22;23248;48.120;14.854;2022-09-09T15:22:13;17.20;99.90
37378;DHT22;23248;48.120;14.854;2022-09-09T15:24:39;17.10;99.90
37378;DHT22;23248;48.120;14.854;2022-09-09T15:27:05;17.00;99.90
37378;DHT22;23248;48.120;14.854;2022-09-09T15:29:31;17.00;99.90
37378;DHT22;23248;48.120;14.854;2022-09-09T15:31:56;16.90;99.90
37378;DHT22;23248;48.120;14.854;2022-09-09T15:34:22;16.80;99.90
37378;DHT22;23248;48.120;14.854;2022-09-09T15:36:48;16.80;99.90
37378;DHT22;23248;48.120;14.854;2022-09-09T15:39:16;16.80;99.90
37378;DHT22;23248;48.120;14.854;2022-09-09T15:41:42;16.60;99.90
37378;DHT22;23248;48.120;14.854;2022-09-09T15:44:09;16.70;99.90
37378;DHT22;23248;48.120;14.854;2022-09-09T15:46:40;16.60;99.90
37378;DHT22;23248;48.120;14.854;2022-09-09T15:49:12;16.60;99.90
37378;DHT22;23248;48.120;14.854;2022-09-09T15:51:43;16.50;99.90
37378;DHT22;23248;48.120;14.854;2022-09-09T15:54:15;16.40;99.90
37378;DHT22;23248;48.120;14.854;2022-09-09T15:56:43;16.40;99.90
37378;DHT22;23248;48.120;14.854;2022-09-09T15:59:09;16.30;99.90
37378;DHT22;23248;48.120;14.854;2022-09-09T16:01:35;16.30;99.90
37378;DHT22;23248;48.120;14.854;2022-09-09T16:04:01;16.30;99.90
37378;DHT22;23248;48.120;14.854;2022-09-09T16:06:29;16.20;99.90
37378;DHT22;23248;48.120;14.854;2022-09-09T16:08:57;16.20;99.90
37378;DHT22;23248;48.120;14.854;2022-09-09T16:11:26;16.10;99.90
37378;DHT22;23248;48.120;14.854;2022-09-09T16:13:53;16.10;99.90
37378;DHT22;23248;48.120;14.854;2022-09-09T16:16:22;16.10;99.90
37378;DHT22;23248;48.120;14.854;2022-09-09T16:18:54;16.00;99.90
37378;DHT22;23248;48.120;14.854;2022-09-09T16:21:24;16.00;99.90
37378;DHT22;23248;48.120;14.854;2022-09-09T16:23:51;16.00;99.90
37378;DHT22;23248;48.120;14.854;2022-09-09T16:26:19;16.00;99.90
37378;DHT22;23248;48.120;14.854;2022-09-09T16:28:45;15.90;99.90
37378;DHT22;23248;48.120;14.854;2022-09-09T16:31:18;15.80;99.90
37378;DHT22;23248;48.120;14.854;2022-09-09T16:33:44;15.80;99.90
37378;DHT22;23248;48.120;14.854;2022-09-09T16:36:12;15.80;99.90
37378;DHT22;23248;48.120;14.854;2022-09-09T16:38:39;15.80;99.90
37378;DHT22;23248;48.120;14.854;2022-09-09T16:41:06;15.80;99.90
37378;DHT22;23248;48.120;14.854;2022-09-09T16:43:33;15.70;99.90
37378;DHT22;23248;48.120;14.854;2022-09-09T16:45:59;15.70;99.90
37378;DHT22;23248;48.120;14.854;2022-09-09T16:48:33;15.70;99.90
37378;DHT22;23248;48.120;14.854;2022-09-09T16:51:12;15.60;99.90
37378;DHT22;23248;48.120;14.854;2022-09-09T16:53:40;15.60;99.90
37378;DHT22;23248;48.120;14.854;2022-09-09T16:56:08;15.60;99.90
37378;DHT22;23248;48.120;14.854;2022-09-09T16:58:34;15.50;99.90
37378;DHT22;23248;48.120;14.854;2022-09-09T17:01:00;15.50;99.90
37378;DHT22;23248;48.120;14.854;2022-09-09T17:03:27;15.40;99.90
37378;DHT22;23248;48.120;14.854;2022-09-09T17:05:53;15.40;99.90
37378;DHT22;23248;48.120;14.854;2022-09-09T17:08:18;15.30;99.90
37378;DHT22;23248;48.120;14.854;2022-09-09T17:10:44;15.30;99.90
37378;DHT22;23248;48.120;14.854;2022-09-09T17:13:11;15.30;99.90
37378;DHT22;23248;48.120;14.854;2022-09-09T17:15:41;15.20;99.90
37378;DHT22;23248;48.120;14.854;2022-09-09T17:18:08;15.20;99.90